Time;durP1;ratioP1;P1;durP2;ratioP2;P2;SDS_P1;SDS_P2;PMS_P1;PMS_P2;Temp;Humidity;BMP_temperature;BMP_pressure;BME280_temperature;BME280_humidity;BME280_pressure;Samples;Min_cycle;Max_cycle;Signal;HPM_P1;HPM_P2
2023/03/04 00:01:50;;;;;;;;;;;;;;;28.25;56.23;101537.97;5048921;28;66251;-40
2023/03/04 00:04:20;;;;;;;;;;;;;;;28.30;56.28;101535.56;5049402;28;70350;-39
2023/03/04 00:06:51;;;;;;;;;;;;;;;28.34;56.85;101536.03;5056086;27;66966;-41
2023/03/04 00:09:21;;;;;;;;;;;;;;;28.39;56.56;101547.94;5048805;28;70579;-39
2023/03/04 00:11:52;;;;;;;;;;;;;;;28.42;56.88;101546.75;5048582;27;66639;-39
2023/03/04 00:14:22;;;;;;;;;;;;;;;28.39;57.99;101558.75;5045170;28;70120;-40
2023/03/04 00:16:53;;;;;;;;;;;;;;;28.23;58.79;101553.53;5044655;28;65910;-38
2023/03/04 00:19:23;;;;;;;;;;;;;;;28.11;59.67;101563.09;5052841;27;69435;-38
2023/03/04 00:21:53;;;;;;;;;;;;;;;28.04;59.61;101566.53;5047352;28;66102;-39
2023/03/04 00:24:24;;;;;;;;;;;;;;;27.97;59.59;101571.00;5051371;28;70300;-40
2023/03/04 00:26:54;;;;;;;;;;;;;;;27.97;58.54;101576.41;5046283;28;66040;-39
2023/03/04 00:29:24;;;;;;;;;;;;;;;28.02;57.46;101578.53;5054530;27;70589;-41
2023/03/04 00:31:54;;;;;;;;;;;;;;;28.09;57.35;101589.44;5052483;28;65695;-39
2023/03/04 00:34:25;;;;;;;;;;;;;;;28.15;57.60;101591.41;5057918;27;69442;-40
2023/03/04 00:37:00;;;;;;;;;;;;;;;28.20;57.60;101588.97;5049896;28;66091;-39
2023/03/04 00:39:30;;;;;;;;;;;;;;;28.27;57.47;101603.38;5057167;28;69714;-41
2023/03/04 00:42:00;;;;;;;;;;;;;;;28.32;57.39;101602.84;5049028;28;66312;-40
2023/03/04 00:44:31;;;;;;;;;;;;;;;28.35;57.40;101600.59;5055278;28;69971;-40
2023/03/04 00:47:01;;;;;;;;;;;;;;;28.39;57.31;101606.44;5065340;27;66272;-39
2023/03/04 00:49:31;;;;;;;;;;;;;;;28.41;57.42;101605.25;5051774;28;69740;-40
2023/03/04 00:52:05;;;;;;;;;;;;;;;28.44;57.05;101602.22;5050320;28;66048;-39
2023/03/04 00:54:38;;;;;;;;;;;;;;;28.48;57.15;101606.22;5046403;28;69641;-41
2023/03/04 00:57:13;;;;;;;;;;;;;;;28.51;57.04;101611.25;5049450;28;59611;-41
2023/03/04 00:59:45;;;;;;;;;;;;;;;28.51;57.85;101607.72;5050266;28;70245;-40
2023/03/04 01:02:15;;;;;;;;;;;;;;;28.57;57.67;101627.72;5046504;28;66828;-41
2023/03/04 01:04:45;;;;;;;;;;;;;;;28.58;57.19;101632.09;5045190;28;70149;-39
2023/03/04 01:07:19;;;;;;;;;;;;;;;28.62;57.32;101622.59;5050997;27;66786;-40
2023/03/04 01:09:50;;;;;;;;;;;;;;;28.64;57.46;101623.22;5045897;28;70309;-39
2023/03/04 01:12:20;;;;;;;;;;;;;;;28.67;57.42;101636.38;5045867;28;65973;-39
2023/03/04 01:14:50;;;;;;;;;;;;;;;28.68;57.43;101638.03;5045252;27;70833;-39
2023/03/04 01:17:21;;;;;;;;;;;;;;;28.69;57.57;101635.13;5083022;27;65918;-41
2023/03/04 01:19:52;;;;;;;;;;;;;;;28.70;57.50;101642.22;5049917;27;69668;-41
2023/03/04 01:22:22;;;;;;;;;;;;;;;28.73;57.40;101641.03;5070481;27;65998;-38
2023/03/04 01:24:52;;;;;;;;;;;;;;;28.75;57.01;101649.75;5050283;28;69838;-39
2023/03/04 01:27:22;;;;;;;;;;;;;;;28.78;57.07;101644.00;5051448;28;66952;-40
2023/03/04 01:29:53;;;;;;;;;;;;;;;28.80;57.69;101647.31;5059802;27;69137;-39
2023/03/04 01:32:23;;;;;;;;;;;;;;;28.83;57.45;101652.34;5041890;28;65890;-40
2023/03/04 01:34:54;;;;;;;;;;;;;;;28.84;57.60;101656.75;5054471;28;69092;-41
2023/03/04 01:37:24;;;;;;;;;;;;;;;28.85;56.96;101655.72;5042897;28;65950;-40
2023/03/04 01:39:54;;;;;;;;;;;;;;;28.88;57.01;101660.72;5045818;28;69349;-45
2023/03/04 01:42:27;;;;;;;;;;;;;;;28.90;57.33;101663.25;5046347;28;65255;-41
2023/03/04 01:44:57;;;;;;;;;;;;;;;28.91;57.12;101665.75;5053768;28;69943;-40
2023/03/04 01:47:29;;;;;;;;;;;;;;;28.92;56.85;101670.16;5085382;27;66631;-39
2023/03/04 01:50:00;;;;;;;;;;;;;;;28.95;57.31;101671.63;5041433;28;69746;-42
2023/03/04 01:52:31;;;;;;;;;;;;;;;28.96;56.66;101670.59;5045460;27;66996;-39
2023/03/04 01:55:02;;;;;;;;;;;;;;;28.98;57.05;101675.81;5054954;28;70431;-38
2023/03/04 01:57:34;;;;;;;;;;;;;;;29.00;56.92;101681.84;5040566;28;65244;-40
2023/03/04 02:00:22;;;;;;;;;;;;;;;29.01;57.01;101683.56;5052061;28;68912;-39
2023/03/04 02:03:01;;;;;;;;;;;;;;;29.02;56.43;101682.50;5039692;28;66604;-42
2023/03/04 02:05:32;;;;;;;;;;;;;;;29.04;56.84;101685.91;5045337;28;69993;-41
2023/03/04 02:08:02;;;;;;;;;;;;;;;29.06;56.63;101689.22;5054143;28;66954;-41
2023/03/04 02:10:33;;;;;;;;;;;;;;;29.07;56.67;101693.63;5049589;27;70640;-41
2023/03/04 02:13:06;;;;;;;;;;;;;;;29.16;57.82;101695.19;5075954;27;65852;-40
2023/03/04 02:15:36;;;;;;;;;;;;;;;29.23;57.58;101688.00;5046441;28;69577;-39
2023/03/04 02:18:16;;;;;;;;;;;;;;;29.21;58.02;101692.75;5052029;28;67244;-40
2023/03/04 02:20:50;;;;;;;;;;;;;;;28.94;57.76;101642.94;5052903;28;70379;-40
2023/03/04 02:23:28;;;;;;;;;;;;;;;29.22;58.13;101694.41;5047182;28;66530;-41
2023/03/04 02:26:14;;;;;;;;;;;;;;;29.23;58.51;101701.53;5048832;28;69826;-40
2023/03/04 02:28:45;;;;;;;;;;;;;;;29.26;58.46;101703.84;5042208;28;65627;-40
2023/03/04 02:31:28;;;;;;;;;;;;;;;29.29;58.15;101705.34;5047499;27;69915;-42
2023/03/04 02:34:00;;;;;;;;;;;;;;;29.15;57.17;101710.56;5052497;28;66431;-40
2023/03/04 02:36:31;;;;;;;;;;;;;;;28.95;54.50;101699.47;5049129;28;70516;-43
2023/03/04 02:39:04;;;;;;;;;;;;;;;28.78;52.78;101702.53;5055616;28;67079;-38
2023/03/04 02:41:35;;;;;;;;;;;;;;;28.64;50.59;101713.19;5043042;28;70206;-38
2023/03/04 02:44:16;;;;;;;;;;;;;;;28.47;49.56;101701.72;5047646;28;66875;-39
2023/03/04 02:46:46;;;;;;;;;;;;;;;28.37;48.12;101706.50;5053285;28;69617;-39
2023/03/04 02:49:18;;;;;;;;;;;;;;;28.26;47.41;101704.25;5051993;28;65715;-38
2023/03/04 02:51:59;;;;;;;;;;;;;;;28.16;46.58;101704.50;5049401;28;69098;-38
2023/03/04 02:54:30;;;;;;;;;;;;;;;28.07;45.81;101711.81;5054528;28;66031;-38
2023/03/04 02:57:04;;;;;;;;;;;;;;;28.01;45.67;101711.72;5079866;27;69931;-39
2023/03/04 02:59:37;;;;;;;;;;;;;;;27.94;44.70;101708.88;5056775;27;66375;-43
2023/03/04 03:02:08;;;;;;;;;;;;;;;27.86;44.36;101706.28;5065760;27;70401;-38
2023/03/04 03:04:39;;;;;;;;;;;;;;;27.82;44.04;101707.63;5048850;28;65962;-38
2023/03/04 03:07:13;;;;;;;;;;;;;;;27.78;43.62;101701.75;5042352;27;69539;-38
2023/03/04 03:09:44;;;;;;;;;;;;;;;27.76;43.07;101700.25;5048403;27;66412;-38
2023/03/04 03:12:14;;;;;;;;;;;;;;;27.73;42.80;101703.31;5050060;28;69818;-41
2023/03/04 03:14:44;;;;;;;;;;;;;;;27.68;42.77;101697.59;5050366;28;67347;-39
2023/03/04 03:17:18;;;;;;;;;;;;;;;27.65;42.59;101689.88;5029891;28;70027;-38
2023/03/04 03:19:49;;;;;;;;;;;;;;;27.60;42.06;101699.31;5074432;27;66727;-38
2023/03/04 03:22:19;;;;;;;;;;;;;;;27.61;42.08;101689.41;5048049;28;69824;-44
2023/03/04 03:24:50;;;;;;;;;;;;;;;27.60;41.73;101691.25;5050983;28;67221;-38
2023/03/04 03:27:20;;;;;;;;;;;;;;;27.54;41.63;101683.88;5046924;28;70978;-40
2023/03/04 03:29:51;;;;;;;;;;;;;;;27.54;41.45;101677.66;5051785;28;65590;-39
2023/03/04 03:32:21;;;;;;;;;;;;;;;27.54;41.39;101678.47;5052022;28;69727;-39
2023/03/04 03:34:51;;;;;;;;;;;;;;;27.52;41.36;101679.69;5042447;28;66279;-41
2023/03/04 03:37:22;;;;;;;;;;;;;;;27.53;40.93;101675.97;5051840;28;70251;-39
2023/03/04 03:39:52;;;;;;;;;;;;;;;27.53;41.08;101665.22;5087290;27;66859;-39
2023/03/04 03:42:22;;;;;;;;;;;;;;;27.50;40.91;101679.03;5050726;28;69550;-39
2023/03/04 03:44:52;;;;;;;;;;;;;;;27.49;40.27;101667.41;5053205;28;65830;-39
2023/03/04 03:47:23;;;;;;;;;;;;;;;27.51;40.47;101662.69;5045507;27;69080;-39
2023/03/04 03:49:54;;;;;;;;;;;;;;;27.50;40.47;101652.94;5048411;28;65855;-39
2023/03/04 03:52:24;;;;;;;;;;;;;;;27.51;40.26;101656.44;5047639;28;69811;-39
2023/03/04 03:54:54;;;;;;;;;;;;;;;27.50;40.11;101647.53;5050743;27;65779;-40
2023/03/04 03:57:27;;;;;;;;;;;;;;;27.29;40.28;101610.44;5044004;28;70721;-38
2023/03/04 03:59:57;;;;;;;;;;;;;;;27.50;40.07;101634.06;5045249;28;66402;-41
2023/03/04 04:02:27;;;;;;;;;;;;;;;27.47;40.18;101629.03;5059696;27;69775;-40
2023/03/04 04:04:58;;;;;;;;;;;;;;;27.49;40.12;101621.59;5041856;28;66589;-40
2023/03/04 04:07:29;;;;;;;;;;;;;;;27.50;40.32;101622.44;5078028;27;69735;-39
2023/03/04 04:09:59;;;;;;;;;;;;;;;27.49;40.33;101616.19;5056113;27;66652;-40
2023/03/04 04:12:30;;;;;;;;;;;;;;;27.51;40.41;101613.34;5042424;28;70360;-39
2023/03/04 04:15:00;;;;;;;;;;;;;;;27.61;40.73;101612.09;5080699;27;66782;-38
2023/03/04 04:17:30;;;;;;;;;;;;;;;27.69;40.18;101604.94;5050383;28;69898;-48
2023/03/04 04:20:01;;;;;;;;;;;;;;;27.72;39.74;101596.47;5047655;28;64871;-40
2023/03/04 04:22:31;;;;;;;;;;;;;;;27.74;39.22;101594.44;5052844;28;70389;-39
2023/03/04 04:25:03;;;;;;;;;;;;;;;27.77;38.96;101586.00;5055680;28;65527;-39
2023/03/04 04:27:34;;;;;;;;;;;;;;;27.77;38.78;101591.38;5043364;28;69833;-39
2023/03/04 04:30:05;;;;;;;;;;;;;;;27.79;38.88;101589.34;5049456;28;66076;-38
2023/03/04 04:32:35;;;;;;;;;;;;;;;27.80;38.66;101580.25;5047570;28;70642;-39
2023/03/04 04:35:06;;;;;;;;;;;;;;;27.80;38.52;101574.88;5052506;28;66088;-39
2023/03/04 04:37:36;;;;;;;;;;;;;;;27.82;38.43;101575.53;5047073;28;69508;-39
2023/03/04 04:40:08;;;;;;;;;;;;;;;27.82;38.38;101572.84;5050716;28;65639;-39
2023/03/04 04:42:38;;;;;;;;;;;;;;;27.80;38.26;101570.34;5043111;28;69860;-39
2023/03/04 04:45:08;;;;;;;;;;;;;;;27.81;37.94;101563.09;5047749;28;65971;-41
2023/03/04 04:47:38;;;;;;;;;;;;;;;27.81;38.14;101560.38;5043374;28;69894;-40
2023/03/04 04:50:09;;;;;;;;;;;;;;;27.83;38.62;101550.22;5050021;28;65607;-39
2023/03/04 04:52:39;;;;;;;;;;;;;;;27.86;38.94;101544.50;5047894;28;70251;-40
2023/03/04 04:55:10;;;;;;;;;;;;;;;27.87;38.73;101543.47;5048870;28;66873;-39
2023/03/04 04:57:40;;;;;;;;;;;;;;;27.89;38.97;101537.88;5041362;28;70091;-39
2023/03/04 05:00:11;;;;;;;;;;;;;;;27.90;38.85;101540.41;5050993;27;66069;-39
2023/03/04 05:02:41;;;;;;;;;;;;;;;27.94;38.90;101528.22;5043871;28;70803;-37
2023/03/04 05:05:11;;;;;;;;;;;;;;;27.95;38.80;101524.50;5047091;28;66891;-40
2023/03/04 05:07:42;;;;;;;;;;;;;;;27.99;38.78;101520.41;5043421;28;69743;-39
2023/03/04 05:10:12;;;;;;;;;;;;;;;28.02;39.04;101511.94;5049469;28;66106;-39
2023/03/04 05:12:43;;;;;;;;;;;;;;;28.03;38.96;101505.53;5051124;28;69860;-38
2023/03/04 05:15:13;;;;;;;;;;;;;;;28.05;38.88;101499.94;5051022;27;65495;-40
2023/03/04 05:17:44;;;;;;;;;;;;;;;28.05;38.53;101498.13;5044807;28;69180;-40
2023/03/04 05:20:14;;;;;;;;;;;;;;;28.10;38.56;101494.00;5052938;27;66949;-39
2023/03/04 05:22:45;;;;;;;;;;;;;;;28.12;38.81;101486.56;5068320;27;69450;-39
2023/03/04 05:25:15;;;;;;;;;;;;;;;28.15;38.39;101480.81;5055250;28;66529;-40
2023/03/04 05:27:45;;;;;;;;;;;;;;;28.16;38.90;101467.09;5043646;28;70230;-39
2023/03/04 05:30:16;;;;;;;;;;;;;;;28.17;38.40;101463.41;5051770;28;65401;-40
2023/03/04 05:32:46;;;;;;;;;;;;;;;28.18;38.47;101458.84;5048184;28;69663;-41
2023/03/04 05:35:16;;;;;;;;;;;;;;;28.17;38.01;101451.78;5047111;28;66163;-40
2023/03/04 05:37:47;;;;;;;;;;;;;;;28.19;38.22;101447.84;5051239;28;70305;-38
2023/03/04 05:40:17;;;;;;;;;;;;;;;28.22;38.56;101449.34;5051074;28;66672;-39
2023/03/04 05:42:48;;;;;;;;;;;;;;;28.25;38.55;101436.31;5045897;28;70181;-38
2023/03/04 05:45:18;;;;;;;;;;;;;;;28.26;38.46;101429.91;5041829;28;66505;-40
2023/03/04 05:47:48;;;;;;;;;;;;;;;28.31;38.42;101423.94;5049280;28;69307;-39
2023/03/04 05:50:19;;;;;;;;;;;;;;;28.29;37.89;101418.72;5052052;27;64897;-40
2023/03/04 05:52:52;;;;;;;;;;;;;;;28.30;37.86;101408.75;5038081;28;70114;-41
2023/03/04 05:55:24;;;;;;;;;;;;;;;28.29;37.84;101412.50;5081184;27;65559;-41
2023/03/04 05:57:54;;;;;;;;;;;;;;;28.30;37.80;101408.75;5054060;27;69640;-40
2023/03/04 06:00:24;;;;;;;;;;;;;;;28.34;37.81;101399.28;5050217;28;66280;-39
2023/03/04 06:02:54;;;;;;;;;;;;;;;28.35;37.91;101395.53;5054793;28;70367;-39
2023/03/04 06:05:25;;;;;;;;;;;;;;;28.38;37.56;101389.75;5048551;28;66562;-40
2023/03/04 06:07:55;;;;;;;;;;;;;;;28.39;37.47;101388.75;5040291;28;69498;-40
2023/03/04 06:10:25;;;;;;;;;;;;;;;28.39;37.77;101375.25;5052695;28;66682;-38
2023/03/04 06:12:56;;;;;;;;;;;;;;;28.42;38.23;101374.91;5057424;28;69339;-38
2023/03/04 06:15:27;;;;;;;;;;;;;;;28.47;38.48;101367.06;5045636;28;66115;-38
2023/03/04 06:17:57;;;;;;;;;;;;;;;28.47;37.91;101358.97;5055121;28;69504;-38
2023/03/04 06:20:27;;;;;;;;;;;;;;;28.49;38.11;101354.19;5050653;28;65706;-37
2023/03/04 06:22:57;;;;;;;;;;;;;;;28.51;37.72;101352.16;5052870;28;69360;-37
2023/03/04 06:25:28;;;;;;;;;;;;;;;28.52;37.64;101356.50;5078896;27;66328;-38
2023/03/04 06:27:58;;;;;;;;;;;;;;;28.54;38.02;101350.94;5062487;28;70567;-39
2023/03/04 06:30:29;;;;;;;;;;;;;;;28.56;37.27;101353.44;5048330;28;66648;-39
2023/03/04 06:32:59;;;;;;;;;;;;;;;28.51;37.41;101341.34;5051543;28;69323;-39
2023/03/04 06:35:29;;;;;;;;;;;;;;;28.57;37.58;101331.66;5048284;28;65616;-39
2023/03/04 06:38:00;;;;;;;;;;;;;;;28.56;37.33;101340.78;5045496;28;69928;-39
2023/03/04 06:40:30;;;;;;;;;;;;;;;28.54;37.06;101325.81;5050816;27;66118;-38
2023/03/04 06:43:00;;;;;;;;;;;;;;;28.54;37.07;101323.13;5054321;28;69471;-37
2023/03/04 06:45:30;;;;;;;;;;;;;;;28.57;37.15;101325.41;5046784;28;66725;-40
2023/03/04 06:48:00;;;;;;;;;;;;;;;28.56;37.52;101312.97;5051687;27;70641;-39
2023/03/04 06:50:31;;;;;;;;;;;;;;;28.53;37.21;101306.09;5054147;28;65540;-38
2023/03/04 06:53:01;;;;;;;;;;;;;;;28.56;37.20;101300.28;5054099;28;69837;-38
2023/03/04 06:55:31;;;;;;;;;;;;;;;28.56;36.82;101299.47;5044803;28;67606;-38
2023/03/04 06:58:01;;;;;;;;;;;;;;;28.58;37.14;101292.81;5054920;28;69273;-38
2023/03/04 07:00:32;;;;;;;;;;;;;;;28.58;37.20;101286.59;5046034;27;65324;-46
2023/03/04 07:03:03;;;;;;;;;;;;;;;28.58;36.99;101290.13;5061232;27;69611;-39
2023/03/04 07:05:34;;;;;;;;;;;;;;;28.57;36.63;101274.97;5046545;28;66615;-39
2023/03/04 07:08:05;;;;;;;;;;;;;;;28.59;36.57;101267.50;5045966;27;69561;-39
2023/03/04 07:10:36;;;;;;;;;;;;;;;28.55;39.38;101260.81;5055899;28;66503;-39
2023/03/04 07:13:06;;;;;;;;;;;;;;;28.70;44.09;101263.44;5046746;28;69744;-38
2023/03/04 07:15:36;;;;;;;;;;;;;;;28.87;45.62;101256.72;5045535;28;66485;-38
2023/03/04 07:18:06;;;;;;;;;;;;;;;29.02;46.96;101253.06;5050809;28;70229;-40
2023/03/04 07:20:37;;;;;;;;;;;;;;;29.17;47.79;101253.81;5049499;28;66571;-40
2023/03/04 07:23:07;;;;;;;;;;;;;;;29.30;48.77;101247.63;5047962;28;69378;-38
2023/03/04 07:25:38;;;;;;;;;;;;;;;29.42;48.89;101245.16;5045539;28;65580;-40
2023/03/04 07:28:08;;;;;;;;;;;;;;;29.50;48.76;101236.88;5048299;28;69793;-40
2023/03/04 07:30:38;;;;;;;;;;;;;;;29.57;49.22;101233.19;5043762;28;65306;-39
2023/03/04 07:33:08;;;;;;;;;;;;;;;29.66;50.02;101233.84;5044950;28;69513;-39
2023/03/04 07:35:39;;;;;;;;;;;;;;;29.71;50.12;101228.66;5049115;28;66476;-40
2023/03/04 07:38:09;;;;;;;;;;;;;;;29.81;50.26;101229.13;5047468;28;70518;-39
2023/03/04 07:40:40;;;;;;;;;;;;;;;29.88;49.89;101222.88;5053391;28;65540;-42
2023/03/04 07:43:11;;;;;;;;;;;;;;;29.93;50.47;101225.81;5051578;28;69584;-40
2023/03/04 07:45:42;;;;;;;;;;;;;;;29.98;50.21;101217.91;5046257;28;66206;-40
2023/03/04 07:48:12;;;;;;;;;;;;;;;30.02;50.14;101211.88;5087156;27;69510;-41
2023/03/04 07:50:43;;;;;;;;;;;;;;;30.09;50.59;101211.03;5051352;28;66194;-39
2023/03/04 07:53:13;;;;;;;;;;;;;;;30.14;50.19;101206.66;5045439;28;70038;-39
2023/03/04 07:55:46;;;;;;;;;;;;;;;30.17;51.07;101202.72;5048227;28;66362;-39
2023/03/04 07:58:18;;;;;;;;;;;;;;;30.20;50.76;101200.44;5050876;28;70929;-39
2023/03/04 08:00:48;;;;;;;;;;;;;;;30.23;50.96;101202.78;5048260;28;66849;-40
2023/03/04 08:03:19;;;;;;;;;;;;;;;30.28;51.14;101202.13;5054168;28;70401;-39
2023/03/04 08:05:50;;;;;;;;;;;;;;;30.37;51.21;101195.47;5048044;28;65600;-39
2023/03/04 08:08:21;;;;;;;;;;;;;;;30.24;51.44;101166.53;5059333;28;71092;-40
2023/03/04 08:10:51;;;;;;;;;;;;;;;30.50;50.79;101190.03;5042574;28;67113;-38
2023/03/04 08:13:21;;;;;;;;;;;;;;;30.53;51.64;101191.47;5038399;28;69232;-39
2023/03/04 08:15:55;;;;;;;;;;;;;;;30.61;51.72;101187.72;5045428;27;66202;-39
2023/03/04 08:18:25;;;;;;;;;;;;;;;30.65;51.78;101191.69;5043541;27;70204;-38
2023/03/04 08:20:56;;;;;;;;;;;;;;;30.71;51.37;101185.44;5046404;28;65609;-40
2023/03/04 08:23:28;;;;;;;;;;;;;;;30.73;51.65;101178.75;5067321;27;70542;-39
2023/03/04 08:26:04;;;;;;;;;;;;;;;30.77;51.36;101183.75;5045167;28;65792;-40
2023/03/04 08:28:35;;;;;;;;;;;;;;;30.81;51.78;101179.59;5043168;28;69463;-39
2023/03/04 08:31:05;;;;;;;;;;;;;;;30.82;52.41;101182.09;5053853;28;66190;-39
2023/03/04 08:33:36;;;;;;;;;;;;;;;30.85;52.99;101180.84;5043443;28;69776;-39
2023/03/04 08:36:07;;;;;;;;;;;;;;;30.87;53.79;101173.31;5046212;28;65235;-39
2023/03/04 08:38:38;;;;;;;;;;;;;;;30.91;52.81;101188.94;5039982;28;69349;-39
2023/03/04 08:41:08;;;;;;;;;;;;;;;30.95;52.67;101178.50;5050227;28;66704;-38
2023/03/04 08:43:39;;;;;;;;;;;;;;;30.97;52.53;101179.13;5052738;28;69728;-39
2023/03/04 08:46:09;;;;;;;;;;;;;;;30.99;53.33;101184.34;5053962;27;66911;-41
2023/03/04 08:48:39;;;;;;;;;;;;;;;31.01;54.59;101180.38;5052954;28;69461;-40
2023/03/04 08:51:12;;;;;;;;;;;;;;;31.03;54.39;101180.13;5040979;28;66466;-40
2023/03/04 08:53:44;;;;;;;;;;;;;;;31.02;54.55;101186.63;5040904;28;70284;-39
2023/03/04 08:56:14;;;;;;;;;;;;;;;31.03;54.34;101180.13;5046243;28;66928;-39
2023/03/04 08:58:45;;;;;;;;;;;;;;;31.04;54.25;101179.94;5041202;27;70749;-39
2023/03/04 09:01:16;;;;;;;;;;;;;;;31.03;54.22;101174.72;5042867;28;66057;-41
2023/03/04 09:03:46;;;;;;;;;;;;;;;31.07;54.25;101182.22;5047217;28;69582;-38
2023/03/04 09:06:17;;;;;;;;;;;;;;;31.05;54.41;101186.19;5067221;27;66483;-39
2023/03/04 09:08:47;;;;;;;;;;;;;;;31.10;54.15;101184.50;5066213;27;70144;-39
2023/03/04 09:11:17;;;;;;;;;;;;;;;31.21;54.03;101185.72;5055040;27;66640;-38
2023/03/04 09:13:50;;;;;;;;;;;;;;;31.29;53.75;101181.94;5055566;27;69357;-39
2023/03/04 09:16:21;;;;;;;;;;;;;;;31.32;53.90;101179.59;5066201;27;66775;-43
2023/03/04 09:18:52;;;;;;;;;;;;;;;31.35;53.03;101181.06;5053382;28;70068;-39
2023/03/04 09:21:22;;;;;;;;;;;;;;;31.39;52.74;101187.72;5042128;27;66881;-41
2023/03/04 09:23:53;;;;;;;;;;;;;;;31.41;52.41;101180.22;5048972;28;69190;-40
2023/03/04 09:26:24;;;;;;;;;;;;;;;31.41;52.75;101179.38;5045589;28;67043;-39
2023/03/04 09:28:56;;;;;;;;;;;;;;;31.41;52.75;101193.75;5050939;28;69180;-39
2023/03/04 09:31:27;;;;;;;;;;;;;;;31.43;52.39;101194.38;5040209;28;65509;-39
2023/03/04 09:33:58;;;;;;;;;;;;;;;31.42;52.78;101192.69;5045283;28;70810;-41
2023/03/04 09:36:28;;;;;;;;;;;;;;;31.42;52.88;101192.69;5039595;28;66218;-40
2023/03/04 09:39:00;;;;;;;;;;;;;;;31.44;52.93;101201.47;5045322;28;70549;-40
2023/03/04 09:41:36;;;;;;;;;;;;;;;31.02;52.92;101135.97;5042292;28;65712;-40
2023/03/04 09:44:14;;;;;;;;;;;;;;;31.45;53.13;101205.81;5053036;28;69788;-40
2023/03/04 09:46:45;;;;;;;;;;;;;;;31.46;52.69;101201.25;5057034;28;65956;-39
2023/03/04 09:49:18;;;;;;;;;;;;;;;31.44;52.69;101206.88;5052546;28;70266;-40
2023/03/04 09:52:14;;;;;;;;;;;;;;;31.46;52.50;101209.41;5050439;27;66024;-40
2023/03/04 09:55:02;;;;;;;;;;;;;;;31.45;52.21;101211.25;5055294;28;69716;-40
2023/03/04 09:57:41;;;;;;;;;;;;;;;31.47;52.32;101222.72;5050513;28;66378;-40
2023/03/04 10:00:30;;;;;;;;;;;;;;;31.44;52.33;101225.03;5054093;28;68560;-40
2023/03/04 10:03:09;;;;;;;;;;;;;;;31.44;52.76;101228.56;5047767;28;66526;-42
2023/03/04 10:05:49;;;;;;;;;;;;;;;31.43;52.53;101229.63;5049191;28;69235;-40
2023/03/04 10:08:31;;;;;;;;;;;;;;;31.46;52.05;101239.22;5043354;28;65970;-40
2023/03/04 10:11:04;;;;;;;;;;;;;;;31.47;52.44;101238.97;5051858;28;69855;-39
2023/03/04 10:13:43;;;;;;;;;;;;;;;31.49;52.59;101236.91;5046789;28;66576;-38
2023/03/04 10:16:17;;;;;;;;;;;;;;;31.48;52.03;101235.25;5053090;28;70016;-40
2023/03/04 10:19:13;;;;;;;;;;;;;;;31.47;52.55;101232.72;5044977;28;66873;-39
2023/03/04 10:21:45;;;;;;;;;;;;;;;31.48;51.95;101246.09;5043111;28;69746;-41
2023/03/04 10:24:21;;;;;;;;;;;;;;;31.49;51.90;101250.44;5047957;28;65831;-39
2023/03/04 10:26:53;;;;;;;;;;;;;;;31.47;52.54;101244.41;5056051;28;69613;-38
2023/03/04 10:29:23;;;;;;;;;;;;;;;31.46;52.18;101248.19;5043111;28;66300;-39
2023/03/04 10:31:55;;;;;;;;;;;;;;;31.45;51.97;101251.09;5046118;28;72256;-39
2023/03/04 10:34:26;;;;;;;;;;;;;;;31.45;52.28;101257.34;5051171;28;67748;-40
2023/03/04 10:37:01;;;;;;;;;;;;;;;31.44;52.07;101250.25;5051711;28;69556;-40
2023/03/04 10:39:35;;;;;;;;;;;;;;;31.45;52.23;101259.22;5041904;28;66763;-40
2023/03/04 10:42:21;;;;;;;;;;;;;;;31.27;53.14;101254.47;5050850;28;70277;-41
2023/03/04 10:44:55;;;;;;;;;;;;;;;31.15;53.44;101265.97;5054167;28;65798;-39
2023/03/04 10:47:27;;;;;;;;;;;;;;;31.08;53.49;101270.56;5045908;28;71024;-41
2023/03/04 10:49:58;;;;;;;;;;;;;;;31.15;53.24;101262.44;5058283;28;67093;-40
2023/03/04 10:52:29;;;;;;;;;;;;;;;31.22;52.90;101257.00;5054244;28;69298;-40
2023/03/04 10:55:01;;;;;;;;;;;;;;;31.26;52.92;101263.63;5051084;27;67543;-41
2023/03/04 10:57:36;;;;;;;;;;;;;;;31.28;53.01;101272.38;5043798;28;70665;-42
2023/03/04 11:00:25;;;;;;;;;;;;;;;31.27;52.59;101263.44;5030543;28;65920;-40
2023/03/04 11:03:14;;;;;;;;;;;;;;;31.31;52.84;101266.53;5041787;28;69769;-39
2023/03/04 11:05:45;;;;;;;;;;;;;;;31.32;52.83;101274.47;5050721;28;66332;-40
2023/03/04 11:08:18;;;;;;;;;;;;;;;31.33;52.63;101269.88;5051897;28;70207;-42
2023/03/04 11:10:51;;;;;;;;;;;;;;;31.32;52.82;101276.34;5051151;28;66737;-39
2023/03/04 11:13:23;;;;;;;;;;;;;;;31.32;52.69;101279.06;5052456;28;69976;-39
2023/03/04 11:15:58;;;;;;;;;;;;;;;31.33;52.69;101286.16;5047635;28;67244;-40
2023/03/04 11:18:29;;;;;;;;;;;;;;;31.32;52.74;101289.91;5055785;27;69404;-40
2023/03/04 11:21:00;;;;;;;;;;;;;;;31.34;52.63;101294.06;5047600;28;65412;-42
2023/03/04 11:23:52;;;;;;;;;;;;;;;31.33;52.53;101291.56;5049762;28;69987;-40
2023/03/04 11:26:34;;;;;;;;;;;;;;;31.32;53.14;101298.03;5051368;28;65663;-41
2023/03/04 11:29:14;;;;;;;;;;;;;;;31.32;52.76;101295.34;5041944;28;70421;-40
2023/03/04 11:31:53;;;;;;;;;;;;;;;31.30;53.02;101294.69;5053470;28;66964;-41
2023/03/04 11:34:26;;;;;;;;;;;;;;;31.30;52.52;101292.81;5047168;28;70539;-41
2023/03/04 11:37:15;;;;;;;;;;;;;;;31.30;52.82;101297.41;5077286;27;65215;-41
2023/03/04 11:39:50;;;;;;;;;;;;;;;31.29;52.73;101299.28;5045237;28;69673;-40
2023/03/04 11:42:24;;;;;;;;;;;;;;;31.29;52.80;101306.59;5047668;28;66373;-41
2023/03/04 11:44:54;;;;;;;;;;;;;;;31.28;52.39;101310.34;5051603;28;69700;-41
2023/03/04 11:47:36;;;;;;;;;;;;;;;31.25;52.70;101306.19;5052677;28;66442;-39
2023/03/04 11:50:17;;;;;;;;;;;;;;;31.26;52.69;101317.84;5051920;28;70456;-41
2023/03/04 11:52:47;;;;;;;;;;;;;;;31.24;52.21;101322.66;5049105;28;65785;-40
2023/03/04 11:55:18;;;;;;;;;;;;;;;31.23;52.35;101318.28;5051866;28;69424;-41
2023/03/04 11:58:11;;;;;;;;;;;;;;;31.23;52.40;101323.69;5049829;28;66440;-39
2023/03/04 12:00:47;;;;;;;;;;;;;;;31.06;53.13;101329.56;5047245;28;69705;-41
2023/03/04 12:03:44;;;;;;;;;;;;;;;30.96;54.05;101334.59;5047099;28;65298;-40
2023/03/04 12:06:35;;;;;;;;;;;;;;;30.84;54.84;101338.97;5052895;28;70443;-41
2023/03/04 12:09:06;;;;;;;;;;;;;;;30.82;54.80;101339.19;5077347;27;65734;-38
2023/03/04 12:11:42;;;;;;;;;;;;;;;30.78;54.90;101347.91;5049880;28;69279;-40
2023/03/04 12:14:21;;;;;;;;;;;;;;;30.73;54.55;101343.13;5067970;27;65733;-40
2023/03/04 12:17:07;;;;;;;;;;;;;;;30.73;54.78;101352.06;5050095;27;70382;-40
2023/03/04 12:19:47;;;;;;;;;;;;;;;30.69;54.71;101349.97;5055860;28;65407;-40
2023/03/04 12:22:18;;;;;;;;;;;;;;;30.70;54.57;101357.91;5051040;28;69141;-41
2023/03/04 12:24:52;;;;;;;;;;;;;;;30.70;55.13;101357.91;5083439;27;66938;-44
2023/03/04 12:27:40;;;;;;;;;;;;;;;30.71;55.48;101353.31;5045887;27;70629;-41
2023/03/04 12:30:29;;;;;;;;;;;;;;;30.70;56.23;101357.91;5054568;28;66111;-40
2023/03/04 12:33:05;;;;;;;;;;;;;;;30.70;56.79;101357.91;5050419;28;70381;-42
2023/03/04 12:35:38;;;;;;;;;;;;;;;30.70;56.88;101357.91;5051388;28;66806;-41
2023/03/04 12:38:26;;;;;;;;;;;;;;;30.70;56.80;101359.75;5048327;28;70664;-42
2023/03/04 12:41:20;;;;;;;;;;;;;;;30.71;56.30;101369.56;5049670;27;66020;-41
2023/03/04 12:44:15;;;;;;;;;;;;;;;30.69;55.60;101355.41;5046756;28;68495;-40
2023/03/04 12:46:45;;;;;;;;;;;;;;;30.68;55.87;101362.69;5044399;28;65883;-41
2023/03/04 12:49:22;;;;;;;;;;;;;;;30.65;55.65;101360.41;5048986;28;70265;-41
2023/03/04 12:52:12;;;;;;;;;;;;;;;30.64;54.84;101374.13;5042600;28;66209;-40
2023/03/04 12:54:49;;;;;;;;;;;;;;;30.61;54.89;101358.31;5042855;28;70866;-41
2023/03/04 12:57:23;;;;;;;;;;;;;;;30.57;54.95;101374.16;5048571;28;66056;-41
2023/03/04 13:00:09;;;;;;;;;;;;;;;30.57;54.37;101368.72;5052613;28;69163;-42
2023/03/04 13:02:45;;;;;;;;;;;;;;;30.54;54.13;101379.16;5049668;28;66377;-44
2023/03/04 13:05:21;;;;;;;;;;;;;;;30.43;53.35;101372.47;5051004;27;70028;-40